createdAt,value
2023-07-15T00:01:20.821Z,18.91
2023-07-15T00:03:49.016Z,18.85
2023-07-15T00:06:17.369Z,18.77
2023-07-15T00:08:46.048Z,18.77
2023-07-15T00:11:18.645Z,18.72
2023-07-15T00:13:46.465Z,18.71
2023-07-15T00:16:15.701Z,18.73
2023-07-15T00:18:44.186Z,18.72
2023-07-15T00:21:19.484Z,18.77
2023-07-15T00:23:47.371Z,18.82
2023-07-15T00:26:15.383Z,18.87
2023-07-15T00:28:43.192Z,18.90
2023-07-15T00:31:18.395Z,18.83
2023-07-15T00:33:46.336Z,18.78
2023-07-15T00:36:15.746Z,18.69
2023-07-15T00:38:44.172Z,18.54
2023-07-15T00:41:21.226Z,18.52
2023-07-15T00:43:57.860Z,18.45
2023-07-15T00:46:52.970Z,18.29
2023-07-15T00:49:23.059Z,18.12
2023-07-15T00:51:53.312Z,18.21
2023-07-15T00:54:21.962Z,18.23
2023-07-15T00:56:50.465Z,18.28
2023-07-15T00:59:18.806Z,18.12
2023-07-15T01:01:50.478Z,18.16
2023-07-15T01:04:19.020Z,18.18
2023-07-15T01:06:47.196Z,18.17
2023-07-15T01:09:15.569Z,18.23
2023-07-15T01:11:43.379Z,18.23
2023-07-15T01:14:13.796Z,18.20
2023-07-15T01:16:42.467Z,18.25
2023-07-15T01:19:11.581Z,18.10
2023-07-15T01:21:40.125Z,18.13
2023-07-15T01:24:09.304Z,18.09
2023-07-15T01:26:37.396Z,18.05
2023-07-15T01:29:05.284Z,18.04
2023-07-15T01:31:33.493Z,18.01
2023-07-15T01:34:01.317Z,18.01
2023-07-15T01:36:29.276Z,17.93
2023-07-15T01:38:57.182Z,17.90
2023-07-15T01:41:26.237Z,17.93
2023-07-15T01:43:54.055Z,17.88
2023-07-15T01:46:21.933Z,17.91
2023-07-15T01:48:50.247Z,18.00
2023-07-15T01:51:17.911Z,18.07
2023-07-15T01:53:45.685Z,18.04
2023-07-15T01:56:13.841Z,18.03
2023-07-15T01:58:43.125Z,18.02
2023-07-15T02:01:11.031Z,18.02
2023-07-15T02:03:38.845Z,17.95
2023-07-15T02:06:06.915Z,17.87
2023-07-15T02:08:34.837Z,17.80
2023-07-15T02:11:02.822Z,17.71
2023-07-15T02:13:30.471Z,17.67
2023-07-15T02:15:59.506Z,17.76
2023-07-15T02:18:27.228Z,17.81
2023-07-15T02:20:55.028Z,17.86
2023-07-15T02:23:23.880Z,17.89
2023-07-15T02:25:51.756Z,17.85
2023-07-15T02:28:19.402Z,17.93
2023-07-15T02:30:47.074Z,17.98
2023-07-15T02:33:16.270Z,17.78
2023-07-15T02:35:44.517Z,17.87
2023-07-15T02:38:12.200Z,17.88
2023-07-15T02:40:39.881Z,17.72
2023-07-15T02:43:07.553Z,17.78
2023-07-15T02:45:35.391Z,17.86
2023-07-15T02:48:04.067Z,17.86
2023-07-15T02:50:33.509Z,17.86
2023-07-15T02:53:01.335Z,17.75
2023-07-15T02:55:29.122Z,17.80
2023-07-15T02:57:56.796Z,17.77
2023-07-15T03:00:24.483Z,17.77
2023-07-15T03:02:52.976Z,17.80
2023-07-15T03:05:20.925Z,17.83
2023-07-15T03:07:50.647Z,17.85
2023-07-15T03:10:20.140Z,17.87
2023-07-15T03:12:49.687Z,17.89
2023-07-15T03:15:18.037Z,17.89
2023-07-15T03:17:46.197Z,17.91
2023-07-15T03:20:20.541Z,17.90
2023-07-15T03:22:52.959Z,17.91
2023-07-15T03:25:21.569Z,17.96
2023-07-15T03:27:49.385Z,17.85
2023-07-15T03:30:17.676Z,17.40
2023-07-15T03:32:46.956Z,17.52
2023-07-15T03:35:17.176Z,17.30
2023-07-15T03:37:46.166Z,16.95
2023-07-15T03:40:15.316Z,16.92
2023-07-15T03:42:43.707Z,16.85
2023-07-15T03:45:12.097Z,16.68
2023-07-15T03:47:40.059Z,16.51
2023-07-15T03:50:11.270Z,16.95
2023-07-15T03:52:39.233Z,16.96
2023-07-15T03:55:07.906Z,17.08
2023-07-15T03:57:37.046Z,17.11
2023-07-15T04:00:07.773Z,17.20
2023-07-15T04:02:46.081Z,17.17
2023-07-15T04:05:14.225Z,17.23
2023-07-15T04:07:42.139Z,17.31
2023-07-15T04:10:10.453Z,17.26
2023-07-15T04:12:39.531Z,17.30
2023-07-15T04:15:08.822Z,17.43
2023-07-15T04:17:36.558Z,17.49
2023-07-15T04:20:13.868Z,17.56
2023-07-15T04:22:41.719Z,17.62
2023-07-15T04:25:11.562Z,17.68
2023-07-15T04:27:41.552Z,17.78
2023-07-15T04:30:11.165Z,17.90
2023-07-15T04:32:38.870Z,18.06
2023-07-15T04:35:07.273Z,18.16
2023-07-15T04:37:34.972Z,18.40
2023-07-15T04:40:05.081Z,18.52
2023-07-15T04:42:32.742Z,18.57
2023-07-15T04:45:01.908Z,18.79
2023-07-15T04:47:29.633Z,18.94
2023-07-15T04:49:57.398Z,19.09
2023-07-15T04:52:25.119Z,19.15
2023-07-15T04:54:52.944Z,19.28
2023-07-15T04:57:20.754Z,19.24
2023-07-15T04:59:49.925Z,19.39
2023-07-15T05:02:19.147Z,19.59
2023-07-15T05:04:46.953Z,19.74
2023-07-15T05:07:14.990Z,19.92
2023-07-15T05:09:43.857Z,20.10
2023-07-15T05:12:12.288Z,20.22
2023-07-15T05:14:40.029Z,20.36
2023-07-15T05:17:09.224Z,20.50
2023-07-15T05:19:38.220Z,20.63
2023-07-15T05:22:07.603Z,20.81
2023-07-15T05:24:35.284Z,20.99
2023-07-15T05:27:03.315Z,21.10
2023-07-15T05:29:30.975Z,21.36
2023-07-15T05:31:58.788Z,21.41
2023-07-15T05:34:26.489Z,21.63
2023-07-15T05:36:55.618Z,21.82
2023-07-15T05:39:23.517Z,21.95
2023-07-15T05:41:51.486Z,22.11
2023-07-15T05:44:19.152Z,22.20
2023-07-15T05:46:47.005Z,22.35
2023-07-15T05:49:14.689Z,22.50
2023-07-15T05:51:42.459Z,22.65
2023-07-15T05:54:11.483Z,22.83
2023-07-15T05:56:39.666Z,23.02
2023-07-15T05:59:07.461Z,23.13
2023-07-15T06:01:35.343Z,23.28
2023-07-15T06:04:03.311Z,23.45
2023-07-15T06:06:30.966Z,23.58
2023-07-15T06:08:58.636Z,23.76
2023-07-15T06:11:27.780Z,23.93
2023-07-15T06:13:55.441Z,24.08
2023-07-15T06:16:23.364Z,24.26
2023-07-15T06:18:51.407Z,24.36
2023-07-15T06:21:19.056Z,24.45
2023-07-15T06:23:46.873Z,24.63
2023-07-15T06:26:14.870Z,24.77
2023-07-15T06:28:44.197Z,24.98
2023-07-15T06:31:13.115Z,25.10
2023-07-15T06:33:45.637Z,25.24
2023-07-15T06:36:13.360Z,25.38
2023-07-15T06:38:42.120Z,25.54
2023-07-15T06:41:09.776Z,25.68
2023-07-15T06:43:37.658Z,25.78
2023-07-15T06:46:08.369Z,25.96
2023-07-15T06:48:36.062Z,26.12
2023-07-15T06:51:03.784Z,26.27
2023-07-15T06:53:31.445Z,26.42
2023-07-15T06:56:09.876Z,26.55
2023-07-15T06:58:47.519Z,26.73
2023-07-15T07:01:16.983Z,26.87
2023-07-15T07:03:46.150Z,27.04
2023-07-15T07:06:14.185Z,27.21
2023-07-15T07:08:42.445Z,27.30
2023-07-15T07:11:10.381Z,27.47
2023-07-15T07:13:38.332Z,27.56
2023-07-15T07:16:06.264Z,27.63
2023-07-15T07:18:35.503Z,27.77
2023-07-15T07:21:03.472Z,27.96
2023-07-15T07:23:31.959Z,28.02
2023-07-15T07:25:59.901Z,28.23
2023-07-15T07:28:41.561Z,28.47
2023-07-15T07:31:09.572Z,28.51
2023-07-15T07:33:39.898Z,28.70
2023-07-15T07:36:07.653Z,29.03
2023-07-15T07:38:36.124Z,29.27
2023-07-15T07:41:08.115Z,29.56
2023-07-15T07:43:36.887Z,29.77
2023-07-15T07:46:06.570Z,29.82
2023-07-15T07:48:34.553Z,29.76
2023-07-15T07:51:03.760Z,30.01
2023-07-15T07:53:31.614Z,30.19
2023-07-15T07:55:59.754Z,30.41
2023-07-15T07:58:27.772Z,30.59
2023-07-15T08:00:55.433Z,30.73
2023-07-15T08:03:23.410Z,30.91
2023-07-15T08:05:51.813Z,31.12
2023-07-15T08:08:20.973Z,31.33
2023-07-15T08:10:48.981Z,31.43
2023-07-15T08:13:16.737Z,31.63
2023-07-15T08:15:44.722Z,31.84
2023-07-15T08:18:12.556Z,32.08
2023-07-15T08:20:42.690Z,32.25
2023-07-15T08:23:11.293Z,32.40
2023-07-15T08:25:40.568Z,32.59
2023-07-15T08:28:08.375Z,32.81
2023-07-15T08:30:37.960Z,32.85
2023-07-15T08:33:06.633Z,32.96
2023-07-15T08:35:35.387Z,33.19
2023-07-15T08:38:03.626Z,33.28
2023-07-15T08:40:32.391Z,33.37
2023-07-15T08:43:01.477Z,33.56
2023-07-15T08:45:34.121Z,33.81
2023-07-15T08:48:02.241Z,33.96
2023-07-15T08:50:35.071Z,34.14
2023-07-15T08:53:04.029Z,34.21
2023-07-15T08:55:32.254Z,34.26
2023-07-15T08:58:01.860Z,34.39
2023-07-15T09:00:29.961Z,34.60
2023-07-15T09:02:58.173Z,34.84
2023-07-15T09:05:26.069Z,34.96
2023-07-15T09:07:56.498Z,35.28
2023-07-15T09:10:24.323Z,35.69
2023-07-15T09:12:54.732Z,35.81
2023-07-15T09:15:24.460Z,35.86
2023-07-15T09:17:55.460Z,35.92
2023-07-15T09:20:25.783Z,35.94
2023-07-15T09:22:55.691Z,35.95
2023-07-15T09:25:24.187Z,36.07
2023-07-15T09:27:52.624Z,36.15
2023-07-15T09:30:21.018Z,36.17
2023-07-15T09:32:50.413Z,36.17
2023-07-15T09:35:18.367Z,36.31
2023-07-15T09:37:49.505Z,36.49
2023-07-15T09:40:17.648Z,36.20
2023-07-15T09:42:53.571Z,36.40
2023-07-15T09:45:35.599Z,36.53
2023-07-15T09:48:06.883Z,36.65
2023-07-15T09:50:35.611Z,36.80
2023-07-15T09:53:04.363Z,36.87
2023-07-15T09:55:33.269Z,36.99
2023-07-15T09:58:10.509Z,37.11
2023-07-15T10:00:43.874Z,37.29
2023-07-15T10:03:23.690Z,37.51
2023-07-15T10:05:52.753Z,37.46
2023-07-15T10:08:21.000Z,37.45
2023-07-15T10:10:49.539Z,37.53
2023-07-15T10:13:17.535Z,37.69
2023-07-15T10:15:46.748Z,37.63
2023-07-15T10:18:19.500Z,37.87
2023-07-15T10:20:57.034Z,38.09
2023-07-15T10:23:26.808Z,37.93
2023-07-15T10:26:03.928Z,37.79
2023-07-15T10:28:34.806Z,38.02
2023-07-15T10:31:13.596Z,38.26
2023-07-15T10:33:56.568Z,38.33
2023-07-15T10:36:38.642Z,38.20
2023-07-15T10:39:14.144Z,38.24
2023-07-15T10:41:43.233Z,38.38
2023-07-15T10:44:18.772Z,38.44
2023-07-15T10:46:47.520Z,38.51
2023-07-15T10:49:18.992Z,38.31
2023-07-15T10:51:48.308Z,38.47
2023-07-15T10:54:20.798Z,38.37
2023-07-15T10:56:48.642Z,38.33
2023-07-15T10:59:16.636Z,38.17
2023-07-15T11:01:44.912Z,38.02
2023-07-15T11:04:13.218Z,37.91
2023-07-15T11:06:42.453Z,37.83
2023-07-15T11:09:20.362Z,37.72
2023-07-15T11:11:48.886Z,37.84
2023-07-15T11:14:21.187Z,38.06
2023-07-15T11:16:51.687Z,38.20
2023-07-15T11:19:19.389Z,37.86
2023-07-15T11:21:48.808Z,37.98
2023-07-15T11:24:17.180Z,38.15
2023-07-15T11:26:45.638Z,38.10
2023-07-15T11:29:17.887Z,38.20
2023-07-15T11:31:47.910Z,38.14
2023-07-15T11:34:18.091Z,38.17
2023-07-15T11:36:47.126Z,38.16
2023-07-15T11:39:16.355Z,38.00
2023-07-15T11:41:44.746Z,37.97
2023-07-15T11:44:13.506Z,37.95
2023-07-15T11:46:42.382Z,38.06
2023-07-15T11:49:11.274Z,37.91
2023-07-15T11:51:43.766Z,37.89
2023-07-15T11:54:13.201Z,37.74
2023-07-15T11:56:44.620Z,37.91
2023-07-15T11:59:14.257Z,38.13
2023-07-15T12:01:43.439Z,38.16
2023-07-15T12:04:15.703Z,38.27
2023-07-15T12:06:51.158Z,38.03
2023-07-15T12:09:19.720Z,37.90
2023-07-15T12:11:49.971Z,37.73
2023-07-15T12:14:19.533Z,37.13
2023-07-15T12:16:49.028Z,37.21
2023-07-15T12:19:19.078Z,37.35
2023-07-15T12:21:47.950Z,37.29
2023-07-15T12:24:16.273Z,37.21
2023-07-15T12:26:44.544Z,37.31
2023-07-15T12:29:14.542Z,36.89
2023-07-15T12:31:42.316Z,37.04
2023-07-15T12:34:10.642Z,36.89
2023-07-15T12:36:38.669Z,36.77
2023-07-15T12:39:06.832Z,36.82
2023-07-15T12:41:34.860Z,36.78
2023-07-15T12:44:03.251Z,36.30
2023-07-15T12:46:32.926Z,35.54
2023-07-15T12:49:01.635Z,35.39
2023-07-15T12:51:29.787Z,35.86
2023-07-15T12:53:58.178Z,36.05
2023-07-15T12:56:26.679Z,36.15
2023-07-15T12:58:54.997Z,36.30
2023-07-15T13:01:23.326Z,36.38
2023-07-15T13:03:53.078Z,36.39
2023-07-15T13:06:21.749Z,36.35
2023-07-15T13:08:50.163Z,36.37
2023-07-15T13:11:18.738Z,36.37
2023-07-15T13:13:49.355Z,36.46
2023-07-15T13:16:17.762Z,36.17
2023-07-15T13:18:45.980Z,36.27
2023-07-15T13:21:16.014Z,36.11
2023-07-15T13:23:44.816Z,36.30
2023-07-15T13:26:13.450Z,36.30
2023-07-15T13:28:41.663Z,36.32
2023-07-15T13:31:10.119Z,36.37
2023-07-15T13:33:40.797Z,36.41
2023-07-15T13:36:10.438Z,36.44
2023-07-15T13:38:39.811Z,36.42
2023-07-15T13:41:08.130Z,36.32
2023-07-15T13:43:36.179Z,36.39
2023-07-15T13:46:04.586Z,36.38
2023-07-15T13:48:32.879Z,36.37
2023-07-15T13:51:01.438Z,36.14
2023-07-15T13:53:29.767Z,36.32
2023-07-15T13:55:59.628Z,36.39
2023-07-15T13:58:27.764Z,36.39
2023-07-15T14:00:56.011Z,36.51
2023-07-15T14:03:24.513Z,36.42
2023-07-15T14:05:52.797Z,36.33
2023-07-15T14:08:21.327Z,36.34
2023-07-15T14:10:49.689Z,35.80
2023-07-15T14:13:19.512Z,35.57
2023-07-15T14:15:47.883Z,35.71
2023-07-15T14:18:16.528Z,35.98
2023-07-15T14:20:44.694Z,36.01
2023-07-15T14:23:12.954Z,36.20
2023-07-15T14:25:41.268Z,36.34
2023-07-15T14:28:09.942Z,36.47
2023-07-15T14:30:40.249Z,36.52
2023-07-15T14:33:08.751Z,36.62
2023-07-15T14:35:37.234Z,36.63
2023-07-15T14:38:05.771Z,36.83
2023-07-15T14:40:34.186Z,37.12
2023-07-15T14:43:02.520Z,36.99
2023-07-15T14:45:30.628Z,37.10
2023-07-15T14:48:00.531Z,37.29
2023-07-15T14:50:29.046Z,37.34
2023-07-15T14:52:58.104Z,37.46
2023-07-15T14:55:26.331Z,37.63
2023-07-15T14:57:54.759Z,37.70
2023-07-15T15:00:23.375Z,37.71
2023-07-15T15:02:52.107Z,37.74
2023-07-15T15:05:21.999Z,37.74
2023-07-15T15:07:50.355Z,37.77
2023-07-15T15:10:18.748Z,38.22
2023-07-15T15:12:46.838Z,38.63
2023-07-15T15:15:15.266Z,39.12
2023-07-15T15:17:43.554Z,39.70
2023-07-15T15:20:13.000Z,40.16
2023-07-15T15:22:42.658Z,40.43
2023-07-15T15:25:11.244Z,40.61
2023-07-15T15:27:39.715Z,40.73
2023-07-15T15:30:09.127Z,40.96
2023-07-15T15:32:37.579Z,41.16
2023-07-15T15:35:06.888Z,40.79
2023-07-15T15:37:35.095Z,40.91
2023-07-15T15:40:05.345Z,41.21
2023-07-15T15:42:33.375Z,41.36
2023-07-15T15:45:03.137Z,41.71
2023-07-15T15:47:31.376Z,41.84
2023-07-15T15:49:59.830Z,42.08
2023-07-15T15:52:27.989Z,42.30
2023-07-15T15:54:57.756Z,42.39
2023-07-15T15:57:27.510Z,42.39
2023-07-15T15:59:57.179Z,42.08
2023-07-15T16:02:25.766Z,41.84
2023-07-15T16:04:55.904Z,41.71
2023-07-15T16:07:25.197Z,41.79
2023-07-15T16:09:53.418Z,41.92
2023-07-15T16:12:21.925Z,42.09
2023-07-15T16:14:51.420Z,42.31
2023-07-15T16:17:19.715Z,42.43
2023-07-15T16:19:47.859Z,42.49
2023-07-15T16:22:16.131Z,42.56
2023-07-15T16:24:44.899Z,42.67
2023-07-15T16:27:13.630Z,42.59
2023-07-15T16:29:41.934Z,42.34
2023-07-15T16:32:12.080Z,42.13
2023-07-15T16:34:40.393Z,42.04
2023-07-15T16:37:08.803Z,41.79
2023-07-15T16:39:37.083Z,41.48
2023-07-15T16:42:05.756Z,41.37
2023-07-15T16:44:34.186Z,41.39
2023-07-15T16:47:02.643Z,41.15
2023-07-15T16:49:32.217Z,40.85
2023-07-15T16:52:00.492Z,40.37
2023-07-15T16:54:28.743Z,39.80
2023-07-15T16:56:56.960Z,39.00
2023-07-15T16:59:25.252Z,38.66
2023-07-15T17:01:53.509Z,38.49
2023-07-15T17:04:22.156Z,38.42
2023-07-15T17:06:51.880Z,38.43
2023-07-15T17:09:20.517Z,38.25
2023-07-15T17:11:48.797Z,38.06
2023-07-15T17:14:17.060Z,37.79
2023-07-15T17:16:45.475Z,37.50
2023-07-15T17:19:13.941Z,37.23
2023-07-15T17:21:42.113Z,37.03
2023-07-15T17:24:11.956Z,36.83
2023-07-15T17:26:39.649Z,36.76
2023-07-15T17:29:07.478Z,36.81
2023-07-15T17:31:35.618Z,36.88
2023-07-15T17:34:03.731Z,37.05
2023-07-15T17:36:32.432Z,37.11
2023-07-15T17:39:00.274Z,37.09
2023-07-15T17:41:30.022Z,37.00
2023-07-15T17:43:59.078Z,36.87
2023-07-15T17:46:26.914Z,36.75
2023-07-15T17:48:54.726Z,36.53
2023-07-15T17:51:22.563Z,36.31
2023-07-15T17:53:50.345Z,36.09
2023-07-15T17:56:19.569Z,35.88
2023-07-15T17:58:48.590Z,35.71
2023-07-15T18:01:16.656Z,35.56
2023-07-15T18:03:46.829Z,35.45
2023-07-15T18:06:14.891Z,35.27
2023-07-15T18:08:42.620Z,35.08
2023-07-15T18:11:10.530Z,34.90
2023-07-15T18:13:39.473Z,34.71
2023-07-15T18:16:09.212Z,34.50
2023-07-15T18:18:36.959Z,34.36
2023-07-15T18:21:04.949Z,34.25
2023-07-15T18:23:38.619Z,34.04
2023-07-15T18:26:06.828Z,33.78
2023-07-15T18:28:34.902Z,33.54
2023-07-15T18:31:02.953Z,33.30
2023-07-15T18:33:32.459Z,32.96
2023-07-15T18:36:00.251Z,32.62
2023-07-15T18:38:27.917Z,32.28
2023-07-15T18:40:55.563Z,31.22
2023-07-15T18:43:23.262Z,31.02
2023-07-15T18:45:50.946Z,30.69
2023-07-15T18:48:18.582Z,30.35
2023-07-15T18:50:47.578Z,30.20
2023-07-15T18:53:15.263Z,29.46
2023-07-15T18:55:43.044Z,28.97
2023-07-15T18:58:10.695Z,28.67
2023-07-15T19:00:38.512Z,28.87
2023-07-15T19:03:06.257Z,28.89
2023-07-15T19:05:34.152Z,28.88
2023-07-15T19:08:03.304Z,28.83
2023-07-15T19:10:31.036Z,28.86
2023-07-15T19:12:58.867Z,28.81
2023-07-15T19:15:26.544Z,28.83
2023-07-15T19:17:54.394Z,28.74
2023-07-15T19:20:22.132Z,28.60
2023-07-15T19:22:50.206Z,28.56
2023-07-15T19:25:19.453Z,28.48
2023-07-15T19:27:47.256Z,28.39
2023-07-15T19:30:14.943Z,28.34
2023-07-15T19:32:42.911Z,28.21
2023-07-15T19:35:10.700Z,28.17
2023-07-15T19:37:38.400Z,27.99
2023-07-15T19:40:07.613Z,27.98
2023-07-15T19:42:36.643Z,27.90
2023-07-15T19:45:04.577Z,27.76
2023-07-15T19:47:32.409Z,27.65
2023-07-15T19:50:00.229Z,27.58
2023-07-15T19:52:28.017Z,27.56
2023-07-15T19:54:55.848Z,27.48
2023-07-15T19:57:23.507Z,27.42
2023-07-15T19:59:52.772Z,27.37
2023-07-15T20:02:20.468Z,27.36
2023-07-15T20:04:48.189Z,27.31
2023-07-15T20:07:16.094Z,27.29
2023-07-15T20:09:43.818Z,27.20
2023-07-15T20:12:11.471Z,27.10
2023-07-15T20:14:40.438Z,27.01
2023-07-15T20:17:09.765Z,26.91
2023-07-15T20:19:37.552Z,26.86
2023-07-15T20:22:05.956Z,26.78
2023-07-15T20:24:33.771Z,26.65
2023-07-15T20:27:01.438Z,26.59
2023-07-15T20:29:29.241Z,26.44
2023-07-15T20:31:56.918Z,26.23
2023-07-15T20:34:25.951Z,26.06
2023-07-15T20:36:53.598Z,25.98
2023-07-15T20:39:21.369Z,25.80
2023-07-15T20:41:49.123Z,25.37
2023-07-15T20:44:17.063Z,25.36
2023-07-15T20:46:45.583Z,25.42
2023-07-15T20:49:13.309Z,25.31
2023-07-15T20:51:42.418Z,25.29
2023-07-15T20:54:10.098Z,25.27
2023-07-15T20:56:37.882Z,25.16
2023-07-15T20:59:05.539Z,24.64
2023-07-15T21:01:33.601Z,24.51
2023-07-15T21:04:01.365Z,24.59
2023-07-15T21:06:29.107Z,24.59
2023-07-15T21:08:58.115Z,24.68
2023-07-15T21:11:27.547Z,24.76
2023-07-15T21:13:55.245Z,24.42
2023-07-15T21:16:22.982Z,24.43
2023-07-15T21:18:50.656Z,24.38
2023-07-15T21:21:18.677Z,24.58
2023-07-15T21:23:46.989Z,24.58
2023-07-15T21:26:16.182Z,24.73
2023-07-15T21:28:44.710Z,24.70
2023-07-15T21:31:12.722Z,24.73
2023-07-15T21:33:40.461Z,24.65
2023-07-15T21:36:08.518Z,24.58
2023-07-15T21:38:36.291Z,24.64
2023-07-15T21:41:03.981Z,24.67
2023-07-15T21:43:33.014Z,24.62
2023-07-15T21:46:00.744Z,24.58
2023-07-15T21:48:28.471Z,24.57
2023-07-15T21:50:56.711Z,24.57
2023-07-15T21:53:24.514Z,24.67
2023-07-15T21:55:53.313Z,24.72
2023-07-15T21:58:22.320Z,24.74
2023-07-15T22:00:51.786Z,24.71
2023-07-15T22:03:19.682Z,24.70
2023-07-15T22:05:47.604Z,24.65
2023-07-15T22:08:15.416Z,24.68
2023-07-15T22:10:43.096Z,24.62
2023-07-15T22:13:10.912Z,24.64
2023-07-15T22:15:38.650Z,24.66
2023-07-15T22:18:07.858Z,24.60
2023-07-15T22:20:35.511Z,24.55
2023-07-15T22:23:03.453Z,24.51
2023-07-15T22:25:31.165Z,24.40
2023-07-15T22:27:58.985Z,24.00
2023-07-15T22:30:26.919Z,24.10
2023-07-15T22:32:54.832Z,23.97
2023-07-15T22:35:24.011Z,23.73
2023-07-15T22:37:51.677Z,23.79
2023-07-15T22:40:19.444Z,23.72
2023-07-15T22:42:47.223Z,23.79
2023-07-15T22:45:15.451Z,23.79
2023-07-15T22:47:43.416Z,23.76
2023-07-15T22:50:11.605Z,23.82
2023-07-15T22:52:40.702Z,23.97
2023-07-15T22:55:09.122Z,24.04
2023-07-15T22:57:36.791Z,23.81
2023-07-15T23:00:05.929Z,23.66
2023-07-15T23:02:33.735Z,23.65
2023-07-15T23:05:01.656Z,23.90
2023-07-15T23:07:29.536Z,23.96
2023-07-15T23:09:58.651Z,24.04
2023-07-15T23:12:26.276Z,23.95
2023-07-15T23:14:54.088Z,24.03
2023-07-15T23:17:22.642Z,23.94
2023-07-15T23:19:50.421Z,23.94
2023-07-15T23:22:18.176Z,23.83
2023-07-15T23:24:45.854Z,23.88
2023-07-15T23:27:15.067Z,23.92
2023-07-15T23:29:42.715Z,23.81
2023-07-15T23:32:10.666Z,23.81
2023-07-15T23:34:38.320Z,23.81
2023-07-15T23:37:06.790Z,23.77
2023-07-15T23:39:34.441Z,23.78
2023-07-15T23:42:02.143Z,23.74
2023-07-15T23:44:31.239Z,23.70
2023-07-15T23:46:59.143Z,23.66
2023-07-15T23:49:26.851Z,23.69
2023-07-15T23:51:54.762Z,23.72
2023-07-15T23:54:22.401Z,23.73
2023-07-15T23:56:50.062Z,23.69
2023-07-15T23:59:17.785Z,23.65
